Time;durP1;ratioP1;P1;durP2;ratioP2;P2;SDS_P1;SDS_P2;PMS_P1;PMS_P2;Temp;Humidity;BMP_temperature;BMP_pressure;BME280_temperature;BME280_humidity;BME280_pressure;Samples;Min_cycle;Max_cycle;Signal;HPM_P1;HPM_P2
2022/07/18 00:00:24;;;;;;;9.68;4.55;;;;;;;15.32;74.73;99090.50;4789085;30;20507;-64
2022/07/18 00:02:50;;;;;;;6.72;4.30;;;;;;;15.31;74.49;99094.25;4789376;30;20059;-63
2022/07/18 00:05:16;;;;;;;6.40;4.47;;;;;;;15.24;75.01;99082.28;4789219;30;20080;-66
2022/07/18 00:07:41;;;;;;;6.50;4.28;;;;;;;15.21;75.66;99086.31;4789135;30;20062;-63
2022/07/18 00:10:08;;;;;;;9.43;4.40;;;;;;;15.18;75.42;99089.53;4797421;29;20084;-64
2022/07/18 00:12:33;;;;;;;4.38;3.90;;;;;;;15.20;75.17;99087.38;4805481;29;20038;-64
2022/07/18 00:14:59;;;;;;;5.38;4.22;;;;;;;15.25;75.27;99090.00;4806806;29;20621;-66
2022/07/18 00:17:25;;;;;;;6.90;3.80;;;;;;;15.15;74.76;99090.88;4789553;29;20061;-64
2022/07/18 00:19:50;;;;;;;6.10;4.00;;;;;;;15.20;74.89;99087.38;4789880;29;20051;-63
2022/07/18 00:22:19;;;;;;;4.47;4.00;;;;;;;15.24;75.12;99091.09;4788744;29;20047;-64
2022/07/18 00:24:45;;;;;;;6.03;4.10;;;;;;;15.30;74.74;99086.53;4788901;30;20542;-65
2022/07/18 00:27:10;;;;;;;8.48;4.38;;;;;;;15.35;74.24;99081.97;4788687;30;20046;-65
2022/07/18 00:29:36;;;;;;;7.38;3.53;;;;;;;15.40;73.90;99086.47;4800582;29;20042;-65
2022/07/18 00:32:05;;;;;;;6.18;3.75;;;;;;;15.40;72.79;99081.13;4806561;29;20126;-65
2022/07/18 00:34:31;;;;;;;4.07;3.35;;;;;;;15.44;73.26;99087.50;4805824;29;20070;-63
2022/07/18 00:36:57;;;;;;;5.07;3.60;;;;;;;15.43;73.32;99086.69;4775020;29;20493;-65
2022/07/18 00:39:24;;;;;;;7.13;4.13;;;;;;;15.46;73.26;99080.00;4806569;29;20154;-63
2022/07/18 00:41:49;;;;;;;4.38;3.55;;;;;;;15.42;72.68;99074.44;4774809;29;20074;-63
2022/07/18 00:44:17;;;;;;;5.25;3.50;;;;;;;15.46;72.56;99077.34;4795889;29;20083;-64
2022/07/18 00:46:43;;;;;;;4.22;3.00;;;;;;;15.47;72.05;99065.59;4800810;29;20103;-64
2022/07/18 00:49:08;;;;;;;4.97;3.50;;;;;;;15.51;71.89;99073.84;4789998;29;20526;-64
2022/07/18 00:51:36;;;;;;;3.70;3.10;;;;;;;15.50;71.60;99066.91;4793012;29;20047;-65
2022/07/18 00:54:03;;;;;;;6.70;3.40;;;;;;;15.56;70.87;99063.13;4805755;29;20574;-64
2022/07/18 00:56:28;;;;;;;7.43;3.50;;;;;;;15.55;71.00;99062.31;4790074;29;20490;-66
2022/07/18 00:58:54;;;;;;;4.57;3.10;;;;;;;15.54;71.18;99068.75;4805745;29;20047;-63
2022/07/18 01:04:04;;;;;;;3.92;3.35;;;;;;;15.59;71.16;99073.28;4779461;29;20051;-64
2022/07/18 01:06:29;;;;;;;4.53;3.35;;;;;;;15.59;71.16;99068.72;4774838;29;20509;-64
2022/07/18 01:08:57;;;;;;;10.18;3.15;;;;;;;15.61;71.34;99066.53;4798689;29;20059;-64
2022/07/18 01:11:23;;;;;;;4.28;3.58;;;;;;;15.62;71.68;99068.16;4771768;30;20149;-65
2022/07/18 01:13:49;;;;;;;6.05;3.65;;;;;;;15.64;72.58;99067.88;4788036;30;20130;-65
2022/07/18 01:16:17;;;;;;;5.68;4.22;;;;;;;15.60;72.60;99072.97;4788535;29;20581;-66
2022/07/18 01:18:47;;;;;;;5.00;3.83;;;;;;;15.59;73.06;99068.72;4789595;29;20055;-64
2022/07/18 01:21:13;;;;;;;5.13;4.10;;;;;;;15.59;72.90;99071.38;4805888;29;20086;-66
2022/07/18 01:23:39;;;;;;;4.80;4.30;;;;;;;15.59;73.48;99068.72;4806013;29;20503;-64
2022/07/18 01:26:04;;;;;;;5.97;4.97;;;;;;;15.60;73.97;99078.31;4805595;29;20069;-65
2022/07/18 01:28:30;;;;;;;6.18;4.40;;;;;;;15.60;74.69;99075.66;4805890;29;20495;-64
2022/07/18 01:30:56;;;;;;;4.85;4.03;;;;;;;15.57;73.80;99073.53;4779318;30;20043;-67
2022/07/18 01:33:21;;;;;;;6.25;4.60;;;;;;;15.54;73.00;99060.72;4787821;30;20081;-65
2022/07/18 01:35:47;;;;;;;6.20;4.55;;;;;;;15.53;74.59;99063.66;4780416;29;20433;-64
2022/07/18 01:38:13;;;;;;;7.03;3.90;;;;;;;15.50;72.58;99061.56;4805715;29;20050;-64
2022/07/18 01:40:38;;;;;;;5.25;3.90;;;;;;;15.48;72.96;99064.50;4788616;29;20104;-66
2022/07/18 01:43:04;;;;;;;9.50;4.10;;;;;;;15.45;73.06;99062.41;4796832;29;20141;-63
2022/07/18 01:45:30;;;;;;;4.82;4.03;;;;;;;15.41;72.90;99064.84;4798051;29;20054;-64
2022/07/18 01:47:56;;;;;;;5.85;3.92;;;;;;;15.41;72.41;99056.00;4790914;29;20081;-64
2022/07/18 01:50:21;;;;;;;4.70;3.55;;;;;;;15.40;72.71;99057.88;4775907;29;20394;-66
2022/07/18 01:52:47;;;;;;;5.15;3.60;;;;;;;15.37;72.42;99054.97;4795667;29;20047;-66
2022/07/18 01:55:13;;;;;;;3.78;3.38;;;;;;;15.39;72.47;99055.50;4787255;29;20047;-64
2022/07/18 01:57:39;;;;;;;7.32;3.38;;;;;;;15.40;72.72;99062.44;4787350;30;20051;-64
2022/07/18 02:00:06;;;;;;;4.45;3.60;;;;;;;15.39;72.49;99044.81;4771232;30;20151;-67
2022/07/18 02:02:32;;;;;;;4.78;3.50;;;;;;;15.43;72.67;99059.19;4796321;29;20099;-63
2022/07/18 02:05:00;;;;;;;5.20;3.50;;;;;;;15.41;72.86;99054.16;4788651;29;20059;-65
2022/07/18 02:07:35;;;;;;;5.55;3.78;;;;;;;15.36;72.87;99040.03;4795368;29;20051;-64
2022/07/18 02:10:11;;;;;;;4.03;3.55;;;;;;;15.40;72.99;99052.53;4784828;29;20058;-64
2022/07/18 02:12:37;;;;;;;5.88;3.88;;;;;;;15.41;73.42;99054.16;4804258;29;20047;-63
2022/07/18 02:15:23;;;;;;;4.15;3.45;;;;;;;15.41;73.62;99048.81;4773615;30;20062;-63
2022/07/18 02:17:49;;;;;;;6.32;3.38;;;;;;;15.38;73.39;99045.88;4786860;29;20468;-65
2022/07/18 02:20:15;;;;;;;4.97;3.13;;;;;;;15.36;73.21;99042.69;4785633;29;20054;-64
2022/07/18 02:22:41;;;;;;;5.60;3.58;;;;;;;15.35;73.96;99047.25;4796138;29;20106;-63
2022/07/18 02:25:07;;;;;;;5.65;3.58;;;;;;;15.29;73.60;99047.53;4770520;30;20047;-64
2022/07/18 02:27:33;;;;;;;4.28;3.38;;;;;;;15.27;73.90;99050.50;4774943;29;20047;-64
2022/07/18 02:29:59;;;;;;;6.93;4.18;;;;;;;15.26;74.22;99056.88;4791077;29;20081;-66
2022/07/18 02:32:25;;;;;;;7.05;4.13;;;;;;;15.21;74.44;99060.41;4786434;29;20046;-64
2022/07/18 02:34:50;;;;;;;5.45;4.32;;;;;;;15.18;75.18;99052.94;4786554;30;20055;-64
2022/07/18 02:37:17;;;;;;;5.20;4.10;;;;;;;15.20;74.94;99049.97;4786503;29;20414;-63
2022/07/18 02:39:43;;;;;;;7.70;4.75;;;;;;;15.15;74.62;99050.81;4770470;30;20059;-65
2022/07/18 02:42:08;;;;;;;5.38;4.88;;;;;;;15.16;74.42;99044.41;4787395;29;20039;-62
2022/07/18 02:44:34;;;;;;;14.32;10.32;;;;;;;15.22;74.38;99053.97;4780556;30;20091;-64
2022/07/18 02:47:00;;;;;;;22.98;15.68;;;;;;;15.26;74.10;99048.09;4785779;30;20043;-63
2022/07/18 02:49:29;;;;;;;24.15;18.08;;;;;;;15.32;73.89;99052.31;4773061;30;20538;-66
2022/07/18 02:52:00;;;;;;;19.58;13.30;;;;;;;15.39;73.94;99050.16;4767323;30;20074;-64
2022/07/18 02:54:28;;;;;;;21.15;17.50;;;;;;;15.47;73.38;99048.75;4768327;30;20048;-66
2022/07/18 02:56:54;;;;;;;24.48;19.65;;;;;;;15.53;72.72;99048.47;4766832;30;20047;-64
2022/07/18 02:59:20;;;;;;;9.88;8.30;;;;;;;15.57;71.61;99049.50;4782731;30;20051;-65
2022/07/18 03:01:46;;;;;;;11.93;10.43;;;;;;;15.63;71.86;99042.25;4784663;30;20047;-65
2022/07/18 03:04:12;;;;;;;11.60;9.82;;;;;;;15.66;71.87;99039.81;4786467;30;20050;-64
2022/07/18 03:06:37;;;;;;;11.65;8.55;;;;;;;15.75;71.21;99047.25;4786485;29;20418;-65
2022/07/18 03:09:04;;;;;;;10.45;8.80;;;;;;;15.81;71.34;99046.13;4770055;30;20138;-64
2022/07/18 03:11:30;;;;;;;10.57;7.57;;;;;;;15.92;70.41;99038.84;4784142;30;20051;-64
2022/07/18 03:13:55;;;;;;;10.80;8.10;;;;;;;16.04;70.71;99039.25;4782998;30;20094;-63
2022/07/18 03:16:21;;;;;;;9.40;8.20;;;;;;;16.11;70.89;99043.19;4781986;30;20125;-65
2022/07/18 03:18:47;;;;;;;6.35;5.43;;;;;;;16.18;69.81;99045.53;4768507;30;20105;-65
2022/07/18 03:21:12;;;;;;;5.72;5.03;;;;;;;16.22;69.83;99045.78;4768207;30;20430;-65
2022/07/18 03:23:38;;;;;;;8.82;5.93;;;;;;;16.35;70.09;99043.22;4767937;30;20052;-63
2022/07/18 03:26:04;;;;;;;7.10;5.88;;;;;;;16.47;68.95;99047.38;4781890;29;20063;-65
2022/07/18 03:28:29;;;;;;;7.50;4.60;;;;;;;16.40;68.07;99038.91;4768635;30;20043;-64
2022/07/18 03:30:58;;;;;;;7.55;4.20;;;;;;;16.52;68.10;99040.09;4766887;30;20427;-65
2022/07/18 03:33:25;;;;;;;7.55;4.38;;;;;;;16.69;67.76;99050.34;4767148;30;20051;-63
2022/07/18 03:35:51;;;;;;;6.57;4.82;;;;;;;16.75;67.79;99049.19;4785871;30;20135;-65
2022/07/18 03:38:16;;;;;;;4.63;4.10;;;;;;;16.81;67.26;99044.59;4785944;29;20093;-64
2022/07/18 03:40:42;;;;;;;6.43;4.05;;;;;;;16.84;67.56;99053.94;4785803;29;20059;-66
2022/07/18 03:43:08;;;;;;;4.75;4.10;;;;;;;16.89;67.21;99054.69;4786907;29;20050;-62
2022/07/18 03:45:33;;;;;;;8.02;4.10;;;;;;;16.94;67.37;99056.50;4785870;29;20050;-65
2022/07/18 03:47:59;;;;;;;5.80;3.47;;;;;;;16.88;67.44;99057.63;4800513;29;20113;-64
2022/07/18 03:50:25;;;;;;;5.85;3.85;;;;;;;16.93;66.98;99055.69;4769909;30;20525;-65
2022/07/18 03:52:50;;;;;;;3.95;3.40;;;;;;;17.05;66.89;99059.84;4770722;29;20043;-63
2022/07/18 03:55:16;;;;;;;6.00;3.50;;;;;;;17.16;66.55;99050.59;4803835;29;20104;-65
2022/07/18 03:57:42;;;;;;;4.82;3.58;;;;;;;17.19;65.20;99045.44;4804106;29;20534;-63
2022/07/18 04:00:11;;;;;;;4.32;3.10;;;;;;;17.40;64.96;99053.19;4804015;29;20115;-64
2022/07/18 04:02:40;;;;;;;5.47;2.88;;;;;;;17.44;63.82;99055.03;4799721;29;20058;-64
2022/07/18 04:05:06;;;;;;;6.75;3.20;;;;;;;17.31;63.57;99060.31;4806459;29;20519;-63
2022/07/18 04:07:32;;;;;;;3.25;2.85;;;;;;;17.14;64.21;99058.91;4807057;29;20046;-65
2022/07/18 04:09:58;;;;;;;5.05;2.85;;;;;;;17.21;63.88;99058.56;4802134;29;20099;-67
2022/07/18 04:12:23;;;;;;;4.60;3.13;;;;;;;17.15;64.58;99057.84;4806786;29;20137;-65
2022/07/18 04:14:49;;;;;;;5.53;3.08;;;;;;;17.12;63.76;99055.75;4790017;29;20055;-64
2022/07/18 04:17:14;;;;;;;3.50;3.00;;;;;;;17.15;64.19;99060.53;4806304;29;20220;-65
2022/07/18 04:19:40;;;;;;;4.25;3.00;;;;;;;17.23;64.16;99056.38;4790718;29;20050;-66
2022/07/18 04:22:06;;;;;;;3.88;2.88;;;;;;;17.39;63.84;99057.78;4774910;30;20154;-62
2022/07/18 04:24:31;;;;;;;4.13;2.75;;;;;;;17.64;62.98;99058.47;4801228;29;20057;-63
2022/07/18 04:26:57;;;;;;;3.58;2.88;;;;;;;17.77;62.59;99057.75;4788854;29;20043;-63
2022/07/18 04:29:23;;;;;;;3.80;3.30;;;;;;;17.88;61.99;99058.38;4793622;29;20060;-65
2022/07/18 04:31:49;;;;;;;8.13;3.10;;;;;;;17.90;62.07;99051.63;4787538;30;20047;-63
2022/07/18 04:34:14;;;;;;;6.43;3.47;;;;;;;18.07;62.76;99050.31;4788657;29;20051;-62
2022/07/18 04:36:40;;;;;;;6.40;3.40;;;;;;;18.23;61.79;99051.59;4787108;30;20043;-62
2022/07/18 04:39:05;;;;;;;7.90;3.33;;;;;;;18.41;61.15;99051.81;4785134;30;20051;-63
2022/07/18 04:41:31;;;;;;;7.88;2.90;;;;;;;18.64;60.20;99047.38;4788159;29;20039;-62
2022/07/18 04:43:57;;;;;;;5.18;3.40;;;;;;;18.82;59.72;99049.16;4793368;29;20093;-63
2022/07/18 04:46:22;;;;;;;5.32;3.20;;;;;;;18.93;59.22;99049.75;4794218;29;20109;-62
2022/07/18 04:48:48;;;;;;;3.78;2.92;;;;;;;19.08;59.03;99048.66;4786880;29;20059;-62
2022/07/18 04:51:14;;;;;;;4.55;2.85;;;;;;;19.21;58.16;99055.91;4787495;29;20494;-64
2022/07/18 04:53:39;;;;;;;5.18;3.05;;;;;;;19.30;57.63;99048.72;4786278;30;20047;-63
2022/07/18 04:56:05;;;;;;;6.60;3.33;;;;;;;19.41;57.66;99052.75;4786420;29;20069;-64
2022/07/18 04:58:31;;;;;;;8.38;3.38;;;;;;;19.41;58.64;99052.75;4797500;29;20043;-63
2022/07/18 05:00:56;;;;;;;4.75;3.22;;;;;;;19.86;57.80;99044.72;4795674;29;20049;-63
2022/07/18 05:03:22;;;;;;;5.03;3.13;;;;;;;20.47;55.64;99038.84;4787479;29;20042;-63
2022/07/18 05:05:48;;;;;;;4.85;3.10;;;;;;;20.82;54.81;99040.59;4803524;29;20100;-64
2022/07/18 05:08:14;;;;;;;3.88;3.13;;;;;;;21.42;52.62;99041.78;4803058;29;20476;-64
2022/07/18 05:10:39;;;;;;;5.50;3.35;;;;;;;21.54;50.88;99031.16;4804175;29;20047;-64
2022/07/18 05:13:05;;;;;;;4.07;2.97;;;;;;;21.60;51.69;99036.38;4803647;29;20483;-62
2022/07/18 05:15:31;;;;;;;4.53;2.50;;;;;;;21.88;49.42;99029.50;4787433;29;20111;-65
2022/07/18 05:17:57;;;;;;;4.93;2.78;;;;;;;21.93;49.57;99045.53;4804014;29;20528;-63
2022/07/18 05:20:24;;;;;;;2.88;2.58;;;;;;;21.83;50.15;99047.78;4804888;29;20050;-64
2022/07/18 05:22:51;;;;;;;5.68;3.53;;;;;;;21.75;50.83;99038.56;4779193;30;20049;-63
2022/07/18 05:25:17;;;;;;;4.35;3.20;;;;;;;21.64;51.42;99046.19;4789674;29;20044;-63
2022/07/18 05:27:43;;;;;;;4.15;2.58;;;;;;;21.54;52.44;99049.22;4804325;29;20109;-63
2022/07/18 05:30:12;;;;;;;4.78;2.70;;;;;;;21.68;53.09;99051.78;4804642;29;20480;-64
2022/07/18 05:32:39;;;;;;;3.70;2.67;;;;;;;21.54;52.38;99054.63;4804557;29;20059;-63
2022/07/18 05:35:05;;;;;;;4.10;2.20;;;;;;;21.57;52.75;99059.38;4805080;29;20461;-65
2022/07/18 05:37:31;;;;;;;6.32;3.10;;;;;;;21.21;53.57;99057.75;4804099;29;20042;-63
2022/07/18 05:39:56;;;;;;;3.72;3.08;;;;;;;20.88;54.27;99051.97;4788814;29;20050;-63
2022/07/18 05:42:22;;;;;;;8.23;3.22;;;;;;;20.66;54.57;99065.56;4804794;29;20070;-63
2022/07/18 05:44:48;;;;;;;5.32;3.53;;;;;;;20.39;55.08;99064.63;4802212;29;20058;-63
2022/07/18 05:47:13;;;;;;;4.30;3.17;;;;;;;20.19;56.34;99063.25;4802939;29;20418;-62
2022/07/18 05:49:39;;;;;;;5.55;3.90;;;;;;;20.06;59.20;99062.25;4787115;29;20054;-62
2022/07/18 05:52:06;;;;;;;7.53;4.38;;;;;;;19.90;60.90;99063.72;4785263;29;20051;-62
2022/07/18 05:54:31;;;;;;;5.47;4.15;;;;;;;19.63;61.43;99046.59;4786185;30;20104;-64
2022/07/18 05:56:57;;;;;;;13.70;4.05;;;;;;;19.56;59.83;99050.78;4775755;30;20555;-62
2022/07/18 05:59:22;;;;;;;5.80;3.13;;;;;;;19.59;56.86;99050.19;4786248;30;20051;-63
2022/07/18 06:01:49;;;;;;;6.22;3.90;;;;;;;19.68;57.97;99045.72;4755134;30;20055;-64
2022/07/18 06:04:14;;;;;;;6.78;3.80;;;;;;;19.70;58.12;99044.28;4790798;29;20076;-62
2022/07/18 06:06:40;;;;;;;4.30;3.13;;;;;;;19.61;56.05;99042.59;4773373;29;20436;-64
2022/07/18 06:09:08;;;;;;;5.88;3.65;;;;;;;19.60;56.49;99038.34;4764477;30;20138;-63
2022/07/18 06:11:34;;;;;;;5.53;3.13;;;;;;;19.69;56.71;99028.47;4786770;30;20039;-63
2022/07/18 06:14:02;;;;;;;6.70;3.40;;;;;;;19.79;55.82;99024.72;4786488;30;20051;-63
2022/07/18 06:16:29;;;;;;;4.85;3.10;;;;;;;19.86;54.06;99025.09;4785665;30;20070;-63
2022/07/18 06:18:55;;;;;;;6.55;3.20;;;;;;;19.98;53.58;99024.53;4786382;30;20047;-62
2022/07/18 06:21:21;;;;;;;6.18;3.50;;;;;;;20.03;53.94;99021.69;4786823;30;20070;-65
2022/07/18 06:23:47;;;;;;;4.70;3.20;;;;;;;20.19;53.82;99026.38;4791690;29;20506;-64
2022/07/18 06:26:13;;;;;;;7.57;2.83;;;;;;;20.40;53.18;99017.75;4802992;29;20053;-64
2022/07/18 06:28:39;;;;;;;4.63;3.17;;;;;;;20.47;52.78;99028.06;4787384;29;20482;-62
2022/07/18 06:31:05;;;;;;;5.30;3.53;;;;;;;20.39;51.29;99024.25;4804293;29;20157;-65
2022/07/18 06:33:32;;;;;;;6.55;3.03;;;;;;;20.39;50.87;99021.56;4805880;29;20058;-62
2022/07/18 06:35:58;;;;;;;2.88;2.50;;;;;;;20.36;49.43;99022.19;4788163;29;20061;-64
2022/07/18 06:38:23;;;;;;;5.07;2.90;;;;;;;20.38;50.34;99018.09;4788095;29;20051;-62
2022/07/18 06:40:49;;;;;;;3.92;3.08;;;;;;;20.63;51.13;99015.81;4783971;30;20502;-64
2022/07/18 06:43:19;;;;;;;5.60;3.17;;;;;;;20.91;50.01;99012.84;4785299;30;20067;-63
2022/07/18 06:45:48;;;;;;;5.82;3.08;;;;;;;20.93;49.41;99011.44;4786416;29;20043;-62
2022/07/18 06:48:15;;;;;;;4.45;2.65;;;;;;;21.05;49.28;99008.91;4785985;30;20073;-62
2022/07/18 06:50:41;;;;;;;4.03;2.90;;;;;;;20.98;49.11;99010.50;4786199;29;20052;-63
2022/07/18 06:53:07;;;;;;;4.55;2.58;;;;;;;20.83;47.89;99009.03;4786794;29;20049;-64
2022/07/18 06:55:32;;;;;;;5.30;2.58;;;;;;;20.68;48.75;99010.28;4803363;29;20050;-66
2022/07/18 06:57:58;;;;;;;3.47;2.50;;;;;;;20.63;49.09;99015.81;4783204;29;20078;-61
2022/07/18 07:00:24;;;;;;;2.92;2.50;;;;;;;20.62;49.29;99015.03;4793083;29;20046;-64
2022/07/18 07:02:50;;;;;;;2.83;2.10;;;;;;;20.66;48.31;99001.72;4787582;29;20047;-64
2022/07/18 07:05:18;;;;;;;5.95;2.50;;;;;;;20.71;48.10;99006.19;4776379;29;20043;-65
2022/07/18 07:07:44;;;;;;;7.63;3.20;;;;;;;20.76;49.31;99001.41;4802230;29;20142;-63
2022/07/18 07:10:10;;;;;;;6.28;3.28;;;;;;;20.94;49.05;99002.25;4784899;29;20185;-61
2022/07/18 07:12:44;;;;;;;5.50;3.08;;;;;;;21.19;49.78;99000.69;4786065;29;20134;-61
2022/07/18 07:15:10;;;;;;;7.10;3.05;;;;;;;21.40;49.90;99016.25;4798946;29;20089;-60
2022/07/18 07:17:36;;;;;;;4.43;2.88;;;;;;;21.63;50.15;99006.88;4785080;30;20138;-61
2022/07/18 07:20:05;;;;;;;5.07;3.10;;;;;;;21.57;50.78;99018.16;4769283;29;20093;-60
2022/07/18 07:22:32;;;;;;;2.38;1.92;;;;;;;21.67;46.91;99013.19;4769103;30;20044;-61
2022/07/18 07:24:58;;;;;;;6.40;2.78;;;;;;;21.79;48.46;99015.22;4785071;30;20054;-61
2022/07/18 07:27:23;;;;;;;3.13;2.55;;;;;;;21.77;48.53;99012.88;4768781;30;20426;-62
2022/07/18 07:29:49;;;;;;;4.28;2.80;;;;;;;21.72;48.78;99017.63;4785419;29;20090;-62
2022/07/18 07:32:14;;;;;;;4.18;2.25;;;;;;;21.77;46.82;99020.19;4790427;29;20129;-63
2022/07/18 07:34:40;;;;;;;3.10;1.98;;;;;;;21.74;44.28;99012.72;4802110;29;20051;-61
2022/07/18 07:37:06;;;;;;;2.63;2.00;;;;;;;21.84;45.27;99017.78;4802502;29;20046;-64
2022/07/18 07:39:31;;;;;;;3.33;2.08;;;;;;;21.86;44.99;99015.56;4788799;29;20104;-65
2022/07/18 07:41:57;;;;;;;4.25;2.20;;;;;;;21.93;45.19;99015.84;4805974;29;20108;-64
2022/07/18 07:44:23;;;;;;;4.35;2.22;;;;;;;21.88;44.04;99016.00;4806722;29;20073;-63
2022/07/18 07:46:49;;;;;;;5.78;2.63;;;;;;;21.94;45.20;99003.94;4790474;29;20054;-62
2022/07/18 07:49:15;;;;;;;3.58;2.38;;;;;;;22.09;46.02;98996.41;4805292;29;20050;-61
2022/07/18 07:51:41;;;;;;;5.10;2.42;;;;;;;22.25;46.57;99002.91;4806017;29;20107;-63
2022/07/18 07:54:06;;;;;;;4.28;2.65;;;;;;;22.19;47.01;98999.59;4806740;29;20061;-62
2022/07/18 07:56:32;;;;;;;6.15;2.72;;;;;;;21.95;47.73;98994.72;4798993;29;20062;-63
2022/07/18 07:58:58;;;;;;;4.32;3.13;;;;;;;21.70;47.99;99001.75;4788891;30;20051;-63
2022/07/18 08:01:23;;;;;;;3.25;2.60;;;;;;;21.63;47.91;99000.69;4788506;30;20051;-61
2022/07/18 08:03:50;;;;;;;5.93;2.70;;;;;;;21.71;47.87;98999.88;4788757;30;20126;-62
2022/07/18 08:06:15;;;;;;;4.90;2.88;;;;;;;21.89;48.05;98997.94;4772470;30;20059;-63
2022/07/18 08:08:41;;;;;;;4.85;2.88;;;;;;;22.22;46.84;98984.66;4788877;30;20077;-64
2022/07/18 08:11:07;;;;;;;4.13;2.80;;;;;;;22.25;46.88;98989.41;4788214;30;20138;-64
2022/07/18 08:13:32;;;;;;;5.05;2.95;;;;;;;22.46;46.53;98975.97;4772774;30;20133;-63
2022/07/18 08:15:58;;;;;;;5.68;2.72;;;;;;;22.66;46.53;98972.50;4757647;30;20079;-63
2022/07/18 08:18:24;;;;;;;3.85;2.72;;;;;;;22.60;46.43;98975.75;4788923;30;20062;-63
2022/07/18 08:20:50;;;;;;;3.97;3.08;;;;;;;22.66;46.02;98972.50;4788151;30;20099;-64
2022/07/18 08:23:17;;;;;;;3.05;2.70;;;;;;;22.66;46.44;98972.50;4788535;30;20418;-62
2022/07/18 08:25:44;;;;;;;3.45;2.83;;;;;;;22.73;46.35;98968.50;4787967;30;20075;-62
2022/07/18 08:28:10;;;;;;;3.97;2.58;;;;;;;22.63;45.93;98964.28;4788582;30;20405;-63
2022/07/18 08:30:37;;;;;;;4.95;2.75;;;;;;;22.39;47.15;98967.59;4772149;30;20059;-63
2022/07/18 08:33:03;;;;;;;3.17;2.60;;;;;;;22.41;46.20;98962.63;4772036;30;20039;-62
2022/07/18 08:35:31;;;;;;;3.28;2.60;;;;;;;22.09;46.01;98962.16;4787350;30;20063;-63
2022/07/18 08:37:58;;;;;;;2.88;2.58;;;;;;;21.88;45.83;98967.44;4787585;30;20501;-63
2022/07/18 08:40:24;;;;;;;6.40;2.67;;;;;;;22.08;46.40;98959.75;4787111;30;20514;-66
2022/07/18 08:42:51;;;;;;;2.72;2.25;;;;;;;21.87;46.44;98960.47;4770382;30;20051;-67
2022/07/18 08:45:20;;;;;;;3.75;2.25;;;;;;;21.81;45.92;98960.97;4786920;30;20063;-60
2022/07/18 08:47:46;;;;;;;2.80;2.30;;;;;;;21.99;46.35;98967.88;4786380;30;20093;-62
2022/07/18 08:50:11;;;;;;;2.15;1.95;;;;;;;22.13;44.38;98951.50;4770514;30;20422;-62
2022/07/18 08:52:38;;;;;;;2.55;2.10;;;;;;;22.40;44.08;98948.34;4786806;30;20051;-61
2022/07/18 08:55:06;;;;;;;3.28;2.13;;;;;;;22.61;42.44;98950.28;4771497;30;20051;-61
2022/07/18 08:57:32;;;;;;;2.58;2.00;;;;;;;22.46;43.47;98946.25;4785501;30;20514;-59
2022/07/18 08:59:58;;;;;;;3.47;1.95;;;;;;;22.71;42.62;98951.81;4786176;30;20254;-65
2022/07/18 09:02:26;;;;;;;2.97;2.10;;;;;;;22.82;41.75;98945.69;4786216;30;20085;-63
2022/07/18 09:04:52;;;;;;;2.90;2.00;;;;;;;22.76;41.91;98952.41;4769836;30;20092;-63
2022/07/18 09:07:30;;;;;;;3.47;2.13;;;;;;;22.56;42.96;98945.06;4783974;30;20144;-64
2022/07/18 09:09:59;;;;;;;5.90;2.00;;;;;;;22.58;41.79;98940.94;4784939;30;20063;-65
2022/07/18 09:12:27;;;;;;;2.10;1.90;;;;;;;22.47;41.55;98947.81;4769621;30;20043;-61
2022/07/18 09:14:54;;;;;;;2.25;1.90;;;;;;;22.45;40.96;98942.00;4786619;30;20051;-63
2022/07/18 09:17:26;;;;;;;2.33;1.80;;;;;;;22.49;40.47;98942.91;4771040;30;20509;-65
2022/07/18 09:19:57;;;;;;;3.83;2.00;;;;;;;22.57;40.64;98944.75;4741008;30;20051;-63
2022/07/18 09:22:25;;;;;;;3.72;2.00;;;;;;;22.38;41.71;98939.00;4786343;30;20050;-65
2022/07/18 09:25:00;;;;;;;3.53;1.80;;;;;;;22.40;42.64;98944.88;4786144;30;20431;-65
2022/07/18 09:27:44;;;;;;;3.97;2.20;;;;;;;22.60;42.11;98941.41;4786546;30;20143;-66
2022/07/18 09:30:19;;;;;;;2.33;1.95;;;;;;;22.56;41.79;98929.69;4787023;30;20138;-66
2022/07/18 09:32:51;;;;;;;2.85;1.92;;;;;;;22.56;41.91;98937.78;4786794;30;20055;-65
2022/07/18 09:35:20;;;;;;;4.28;1.95;;;;;;;22.39;41.56;98925.19;4770786;30;20763;-66
2022/07/18 09:38:14;;;;;;;4.13;2.00;;;;;;;22.15;42.48;98928.47;4787362;30;20395;-64
2022/07/18 09:40:42;;;;;;;2.60;2.15;;;;;;;21.95;42.18;98921.88;4785658;30;20414;-64
2022/07/18 09:43:10;;;;;;;2.70;2.03;;;;;;;21.96;43.10;98928.84;4785344;30;20051;-63
2022/07/18 09:45:41;;;;;;;3.65;2.08;;;;;;;21.88;43.69;98910.00;4773663;30;20504;-62
2022/07/18 09:48:09;;;;;;;4.38;2.38;;;;;;;21.79;43.56;98915.41;4769828;30;20055;-64
2022/07/18 09:50:40;;;;;;;2.63;2.17;;;;;;;21.89;43.94;98911.59;4769294;30;20059;-63
2022/07/18 09:53:19;;;;;;;3.67;2.00;;;;;;;22.06;42.37;98916.09;4769355;30;20051;-64
2022/07/18 09:56:03;;;;;;;2.03;1.70;;;;;;;22.13;41.93;98906.38;4768022;30;20051;-63
2022/07/18 09:58:31;;;;;;;2.38;1.73;;;;;;;22.29;41.37;98897.75;4764145;30;20101;-61
2022/07/18 10:00:59;;;;;;;2.90;1.77;;;;;;;22.34;42.17;98909.16;4767412;30;20486;-63
2022/07/18 10:03:25;;;;;;;2.60;2.10;;;;;;;22.23;44.82;98900.63;4768553;30;20051;-61
2022/07/18 10:05:53;;;;;;;5.65;2.40;;;;;;;22.35;43.31;98893.75;4769698;30;20056;-62
2022/07/18 10:08:23;;;;;;;2.08;1.88;;;;;;;22.46;42.97;98903.06;4766344;30;20047;-62
2022/07/18 10:10:51;;;;;;;1.90;1.60;;;;;;;22.36;41.84;98900.75;4767698;30;20054;-64
2022/07/18 10:13:28;;;;;;;2.67;1.70;;;;;;;22.14;41.20;98897.16;4768505;30;20134;-62
2022/07/18 10:15:54;;;;;;;1.65;1.55;;;;;;;22.08;41.59;98894.97;4764309;30;20507;-64
2022/07/18 10:18:28;;;;;;;1.67;1.58;;;;;;;22.20;41.06;98895.09;4767347;30;20064;-62
2022/07/18 10:20:58;;;;;;;2.72;1.60;;;;;;;22.40;41.35;98890.84;4767845;30;20416;-65
2022/07/18 10:23:33;;;;;;;4.10;1.75;;;;;;;22.59;40.81;98893.09;4781041;30;20040;-62
2022/07/18 10:26:15;;;;;;;1.75;1.50;;;;;;;22.52;40.32;98890.16;4783961;30;20082;-63
2022/07/18 10:28:59;;;;;;;2.15;1.63;;;;;;;22.25;40.02;98886.03;4779181;29;20058;-63
2022/07/18 10:31:28;;;;;;;3.78;1.55;;;;;;;22.19;39.79;98888.91;4770277;30;20044;-64
2022/07/18 10:34:09;;;;;;;2.10;1.50;;;;;;;22.37;38.52;98884.19;4794806;29;20054;-61
2022/07/18 10:36:36;;;;;;;3.53;1.50;;;;;;;22.68;39.55;98886.53;4799592;29;20576;-62
2022/07/18 10:39:23;;;;;;;2.47;1.60;;;;;;;22.88;38.85;98887.66;4785655;30;20510;-64
2022/07/18 10:41:49;;;;;;;1.65;1.50;;;;;;;23.01;38.42;98876.91;4785399;30;20047;-62
2022/07/18 10:44:20;;;;;;;4.35;2.20;;;;;;;23.08;38.25;98877.94;4793232;29;20063;-62
2022/07/18 10:47:20;;;;;;;1.80;1.50;;;;;;;23.08;38.72;98875.22;4801116;29;20407;-64
2022/07/18 10:49:48;;;;;;;1.73;1.63;;;;;;;23.11;38.98;98877.28;4786171;29;20070;-62
2022/07/18 10:52:26;;;;;;;3.20;1.80;;;;;;;22.90;40.46;98881.91;4783754;30;20138;-61
2022/07/18 10:55:01;;;;;;;2.28;1.67;;;;;;;22.72;39.96;98888.56;4784924;29;20055;-62
2022/07/18 10:57:28;;;;;;;2.13;1.77;;;;;;;22.74;41.31;98887.13;4798229;29;20082;-63
2022/07/18 11:00:26;;;;;;;2.00;1.80;;;;;;;22.53;43.10;98889.00;4801662;29;20055;-62
2022/07/18 11:03:01;;;;;;;4.88;2.28;;;;;;;22.44;44.57;98886.38;4786734;29;20126;-63
2022/07/18 11:05:26;;;;;;;3.65;2.03;;;;;;;22.36;44.72;98889.94;4786223;29;20579;-64
2022/07/18 11:08:01;;;;;;;3.38;2.25;;;;;;;22.05;45.92;98885.63;4785233;29;20161;-63
2022/07/18 11:10:46;;;;;;;3.83;2.00;;;;;;;21.76;47.86;98887.19;4786766;29;20047;-63
2022/07/18 11:13:24;;;;;;;5.10;1.92;;;;;;;21.67;46.34;98885.63;4785308;29;20058;-62
2022/07/18 11:16:06;;;;;;;1.80;1.70;;;;;;;21.60;46.40;98882.66;4787217;30;20051;-63
2022/07/18 11:18:53;;;;;;;2.10;1.90;;;;;;;21.21;48.34;98890.66;4786598;30;20142;-64
2022/07/18 11:21:21;;;;;;;3.03;1.50;;;;;;;21.03;47.92;98886.38;4763975;30;20213;-64
2022/07/18 11:23:49;;;;;;;1.83;1.50;;;;;;;20.80;48.00;98886.56;4771458;30;20051;-63
2022/07/18 11:26:17;;;;;;;2.55;1.65;;;;;;;20.63;46.73;98881.16;4770707;30;20095;-60
2022/07/18 11:28:43;;;;;;;4.15;1.30;;;;;;;20.39;45.54;98889.66;4772975;30;20411;-62
2022/07/18 11:31:11;;;;;;;1.83;1.38;;;;;;;20.14;45.88;98904.63;4772997;30;20108;-62
2022/07/18 11:33:43;;;;;;;1.15;1.00;;;;;;;20.04;44.87;98886.88;4791623;29;20058;-62
2022/07/18 11:36:23;;;;;;;2.72;1.30;;;;;;;19.96;46.00;98898.41;4772215;30;20058;-62